sensor_id;sensor_type;location;lat;lon;timestamp;P1;durP1;ratioP1;P2;durP2;ratioP2
26062;SDS011;13837;48.562;12.108;2023-08-24T00:02:05;14.90;;;12.95;;
26062;SDS011;13837;48.562;12.108;2023-08-24T00:04:32;14.98;;;13.38;;
26062;SDS011;13837;48.562;12.108;2023-08-24T00:06:59;14.00;;;12.70;;
26062;SDS011;13837;48.562;12.108;2023-08-24T00:09:25;14.52;;;13.10;;
26062;SDS011;13837;48.562;12.108;2023-08-24T00:11:51;13.55;;;12.18;;
26062;SDS011;13837;48.562;12.108;2023-08-24T00:14:18;14.95;;;13.07;;
26062;SDS011;13837;48.562;12.108;2023-08-24T00:16:44;14.38;;;13.00;;
26062;SDS011;13837;48.562;12.108;2023-08-24T00:19:10;13.50;;;12.20;;
26062;SDS011;13837;48.562;12.108;2023-08-24T00:21:36;14.65;;;12.15;;
26062;SDS011;13837;48.562;12.108;2023-08-24T00:24:02;14.10;;;12.63;;
26062;SDS011;13837;48.562;12.108;2023-08-24T00:26:28;14.25;;;12.70;;
26062;SDS011;13837;48.562;12.108;2023-08-24T00:28:54;13.55;;;12.18;;
26062;SDS011;13837;48.562;12.108;2023-08-24T00:31:20;15.80;;;12.73;;
26062;SDS011;13837;48.562;12.108;2023-08-24T00:33:47;14.00;;;12.55;;
26062;SDS011;13837;48.562;12.108;2023-08-24T00:36:15;15.07;;;11.70;;
26062;SDS011;13837;48.562;12.108;2023-08-24T00:38:43;14.25;;;12.75;;
26062;SDS011;13837;48.562;12.108;2023-08-24T00:41:09;14.38;;;12.98;;
26062;SDS011;13837;48.562;12.108;2023-08-24T00:43:35;15.25;;;13.80;;
26062;SDS011;13837;48.562;12.108;2023-08-24T00:46:01;14.52;;;13.10;;
26062;SDS011;13837;48.562;12.108;2023-08-24T00:48:29;14.20;;;12.90;;
26062;SDS011;13837;48.562;12.108;2023-08-24T00:50:55;16.33;;;12.75;;
26062;SDS011;13837;48.562;12.108;2023-08-24T00:53:22;14.48;;;12.98;;
26062;SDS011;13837;48.562;12.108;2023-08-24T00:55:51;14.32;;;13.05;;
26062;SDS011;13837;48.562;12.108;2023-08-24T00:58:17;14.68;;;13.18;;
26062;SDS011;13837;48.562;12.108;2023-08-24T01:00:45;15.20;;;13.73;;
26062;SDS011;13837;48.562;12.108;2023-08-24T01:03:11;14.88;;;13.32;;
26062;SDS011;13837;48.562;12.108;2023-08-24T01:05:37;15.05;;;13.48;;
26062;SDS011;13837;48.562;12.108;2023-08-24T01:08:04;15.93;;;13.18;;
26062;SDS011;13837;48.562;12.108;2023-08-24T01:10:34;15.32;;;13.35;;
26062;SDS011;13837;48.562;12.108;2023-08-24T01:13:08;14.80;;;13.40;;
26062;SDS011;13837;48.562;12.108;2023-08-24T01:15:43;15.65;;;13.43;;
26062;SDS011;13837;48.562;12.108;2023-08-24T01:18:11;15.45;;;13.93;;
26062;SDS011;13837;48.562;12.108;2023-08-24T01:20:40;15.80;;;14.20;;
26062;SDS011;13837;48.562;12.108;2023-08-24T01:25:45;17.90;;;13.93;;
26062;SDS011;13837;48.562;12.108;2023-08-24T01:28:12;18.83;;;15.25;;
26062;SDS011;13837;48.562;12.108;2023-08-24T01:30:39;16.80;;;15.05;;
26062;SDS011;13837;48.562;12.108;2023-08-24T01:33:05;15.30;;;13.80;;
26062;SDS011;13837;48.562;12.108;2023-08-24T01:35:36;15.88;;;14.23;;
26062;SDS011;13837;48.562;12.108;2023-08-24T01:38:03;17.38;;;15.27;;
26062;SDS011;13837;48.562;12.108;2023-08-24T01:40:46;16.75;;;15.05;;
26062;SDS011;13837;48.562;12.108;2023-08-24T01:43:14;17.55;;;15.57;;
26062;SDS011;13837;48.562;12.108;2023-08-24T01:45:41;16.73;;;15.18;;
26062;SDS011;13837;48.562;12.108;2023-08-24T01:48:07;18.45;;;15.63;;
26062;SDS011;13837;48.562;12.108;2023-08-24T01:50:35;16.95;;;15.35;;
26062;SDS011;13837;48.562;12.108;2023-08-24T01:53:01;16.77;;;14.98;;
26062;SDS011;13837;48.562;12.108;2023-08-24T01:55:28;17.42;;;15.45;;
26062;SDS011;13837;48.562;12.108;2023-08-24T01:57:55;18.58;;;16.15;;
26062;SDS011;13837;48.562;12.108;2023-08-24T02:00:21;17.65;;;15.95;;
26062;SDS011;13837;48.562;12.108;2023-08-24T02:02:47;19.20;;;15.55;;
26062;SDS011;13837;48.562;12.108;2023-08-24T02:05:13;17.27;;;15.32;;
26062;SDS011;13837;48.562;12.108;2023-08-24T02:07:39;18.52;;;16.15;;
26062;SDS011;13837;48.562;12.108;2023-08-24T02:10:06;17.17;;;15.13;;
26062;SDS011;13837;48.562;12.108;2023-08-24T02:12:32;18.48;;;16.08;;
26062;SDS011;13837;48.562;12.108;2023-08-24T02:14:58;18.50;;;16.60;;
26062;SDS011;13837;48.562;12.108;2023-08-24T02:17:25;20.33;;;17.00;;
26062;SDS011;13837;48.562;12.108;2023-08-24T02:19:52;18.27;;;16.40;;
26062;SDS011;13837;48.562;12.108;2023-08-24T02:22:18;18.02;;;16.27;;
26062;SDS011;13837;48.562;12.108;2023-08-24T02:24:44;17.70;;;15.82;;
26062;SDS011;13837;48.562;12.108;2023-08-24T02:27:11;16.60;;;15.10;;
26062;SDS011;13837;48.562;12.108;2023-08-24T02:29:38;17.55;;;15.75;;
26062;SDS011;13837;48.562;12.108;2023-08-24T02:32:05;19.67;;;17.67;;
26062;SDS011;13837;48.562;12.108;2023-08-24T02:34:31;19.25;;;17.20;;
26062;SDS011;13837;48.562;12.108;2023-08-24T02:36:57;18.60;;;16.73;;
26062;SDS011;13837;48.562;12.108;2023-08-24T02:39:23;18.52;;;16.63;;
26062;SDS011;13837;48.562;12.108;2023-08-24T02:41:50;19.48;;;17.60;;
26062;SDS011;13837;48.562;12.108;2023-08-24T02:44:16;19.20;;;16.90;;
26062;SDS011;13837;48.562;12.108;2023-08-24T02:46:47;18.80;;;16.92;;
26062;SDS011;13837;48.562;12.108;2023-08-24T02:49:13;18.85;;;16.95;;
26062;SDS011;13837;48.562;12.108;2023-08-24T02:51:39;19.38;;;16.65;;
26062;SDS011;13837;48.562;12.108;2023-08-24T02:54:06;18.00;;;16.20;;
26062;SDS011;13837;48.562;12.108;2023-08-24T02:56:32;17.65;;;15.98;;
26062;SDS011;13837;48.562;12.108;2023-08-24T02:58:59;17.08;;;14.68;;
26062;SDS011;13837;48.562;12.108;2023-08-24T03:01:25;17.95;;;16.15;;
26062;SDS011;13837;48.562;12.108;2023-08-24T03:03:51;17.67;;;15.60;;
26062;SDS011;13837;48.562;12.108;2023-08-24T03:06:18;17.23;;;15.52;;
26062;SDS011;13837;48.562;12.108;2023-08-24T03:08:44;17.10;;;15.40;;
26062;SDS011;13837;48.562;12.108;2023-08-24T03:11:10;18.08;;;16.23;;
26062;SDS011;13837;48.562;12.108;2023-08-24T03:13:37;17.13;;;15.32;;
26062;SDS011;13837;48.562;12.108;2023-08-24T03:16:04;16.95;;;15.27;;
26062;SDS011;13837;48.562;12.108;2023-08-24T03:18:31;17.13;;;15.43;;
26062;SDS011;13837;48.562;12.108;2023-08-24T03:20:57;17.65;;;15.93;;
26062;SDS011;13837;48.562;12.108;2023-08-24T03:23:23;17.77;;;16.08;;
26062;SDS011;13837;48.562;12.108;2023-08-24T03:25:49;17.60;;;15.90;;
26062;SDS011;13837;48.562;12.108;2023-08-24T03:28:15;19.35;;;16.13;;
26062;SDS011;13837;48.562;12.108;2023-08-24T03:30:49;17.25;;;15.48;;
26062;SDS011;13837;48.562;12.108;2023-08-24T03:33:15;16.73;;;15.13;;
26062;SDS011;13837;48.562;12.108;2023-08-24T03:35:42;16.73;;;15.23;;
26062;SDS011;13837;48.562;12.108;2023-08-24T03:38:08;17.83;;;16.02;;
26062;SDS011;13837;48.562;12.108;2023-08-24T03:40:34;17.92;;;16.23;;
26062;SDS011;13837;48.562;12.108;2023-08-24T03:43:03;18.05;;;16.33;;
26062;SDS011;13837;48.562;12.108;2023-08-24T03:47:55;17.05;;;15.45;;
26062;SDS011;13837;48.562;12.108;2023-08-24T03:50:22;17.27;;;15.57;;
26062;SDS011;13837;48.562;12.108;2023-08-24T03:52:49;18.88;;;16.88;;
26062;SDS011;13837;48.562;12.108;2023-08-24T03:55:16;18.10;;;16.40;;
26062;SDS011;13837;48.562;12.108;2023-08-24T03:57:42;18.55;;;16.35;;
26062;SDS011;13837;48.562;12.108;2023-08-24T04:00:09;19.77;;;17.35;;
26062;SDS011;13837;48.562;12.108;2023-08-24T04:02:41;19.27;;;17.38;;
26062;SDS011;13837;48.562;12.108;2023-08-24T04:05:12;20.52;;;17.35;;
26062;SDS011;13837;48.562;12.108;2023-08-24T04:07:38;18.27;;;16.52;;
26062;SDS011;13837;48.562;12.108;2023-08-24T04:10:05;18.50;;;16.55;;
26062;SDS011;13837;48.562;12.108;2023-08-24T04:12:32;18.40;;;16.55;;
26062;SDS011;13837;48.562;12.108;2023-08-24T04:14:58;17.65;;;15.95;;
26062;SDS011;13837;48.562;12.108;2023-08-24T04:17:24;19.70;;;14.25;;
26062;SDS011;13837;48.562;12.108;2023-08-24T04:19:50;15.82;;;14.30;;
26062;SDS011;13837;48.562;12.108;2023-08-24T04:22:18;16.40;;;14.75;;
26062;SDS011;13837;48.562;12.108;2023-08-24T04:24:44;17.02;;;14.93;;
26062;SDS011;13837;48.562;12.108;2023-08-24T04:27:10;16.98;;;14.60;;
26062;SDS011;13837;48.562;12.108;2023-08-24T04:29:36;17.30;;;14.73;;
26062;SDS011;13837;48.562;12.108;2023-08-24T04:32:02;16.60;;;13.27;;
26062;SDS011;13837;48.562;12.108;2023-08-24T04:34:28;16.80;;;15.18;;
26062;SDS011;13837;48.562;12.108;2023-08-24T04:36:54;16.45;;;14.85;;
26062;SDS011;13837;48.562;12.108;2023-08-24T04:39:20;15.52;;;13.98;;
26062;SDS011;13837;48.562;12.108;2023-08-24T04:41:47;17.20;;;13.43;;
26062;SDS011;13837;48.562;12.108;2023-08-24T04:44:13;18.05;;;14.30;;
26062;SDS011;13837;48.562;12.108;2023-08-24T04:46:39;17.08;;;15.25;;
26062;SDS011;13837;48.562;12.108;2023-08-24T04:49:05;17.48;;;15.75;;
26062;SDS011;13837;48.562;12.108;2023-08-24T04:51:31;16.88;;;15.30;;
26062;SDS011;13837;48.562;12.108;2023-08-24T04:53:57;17.23;;;15.63;;
26062;SDS011;13837;48.562;12.108;2023-08-24T04:56:23;19.05;;;15.60;;
26062;SDS011;13837;48.562;12.108;2023-08-24T04:58:53;18.02;;;16.33;;
26062;SDS011;13837;48.562;12.108;2023-08-24T05:01:21;18.73;;;16.73;;
26062;SDS011;13837;48.562;12.108;2023-08-24T05:03:47;17.65;;;15.55;;
26062;SDS011;13837;48.562;12.108;2023-08-24T05:06:13;18.77;;;15.85;;
26062;SDS011;13837;48.562;12.108;2023-08-24T05:08:39;18.33;;;16.30;;
26062;SDS011;13837;48.562;12.108;2023-08-24T05:11:27;17.98;;;16.02;;
26062;SDS011;13837;48.562;12.108;2023-08-24T05:13:54;16.70;;;15.10;;
26062;SDS011;13837;48.562;12.108;2023-08-24T05:16:20;17.75;;;15.85;;
26062;SDS011;13837;48.562;12.108;2023-08-24T05:18:46;19.60;;;16.30;;
26062;SDS011;13837;48.562;12.108;2023-08-24T05:21:12;17.38;;;15.70;;
26062;SDS011;13837;48.562;12.108;2023-08-24T05:23:38;17.88;;;16.05;;
26062;SDS011;13837;48.562;12.108;2023-08-24T05:26:04;17.38;;;15.60;;
26062;SDS011;13837;48.562;12.108;2023-08-24T05:28:30;14.57;;;13.27;;
26062;SDS011;13837;48.562;12.108;2023-08-24T05:30:57;15.27;;;13.77;;
26062;SDS011;13837;48.562;12.108;2023-08-24T05:33:23;14.93;;;13.52;;
26062;SDS011;13837;48.562;12.108;2023-08-24T05:35:50;16.60;;;14.77;;
26062;SDS011;13837;48.562;12.108;2023-08-24T05:38:16;14.10;;;12.70;;
26062;SDS011;13837;48.562;12.108;2023-08-24T05:40:42;19.67;;;13.43;;
26062;SDS011;13837;48.562;12.108;2023-08-24T05:43:09;15.80;;;12.52;;
26062;SDS011;13837;48.562;12.108;2023-08-24T05:45:35;20.33;;;12.85;;
26062;SDS011;13837;48.562;12.108;2023-08-24T05:48:01;18.00;;;13.52;;
26062;SDS011;13837;48.562;12.108;2023-08-24T05:50:27;16.85;;;12.70;;
26062;SDS011;13837;48.562;12.108;2023-08-24T05:52:53;13.82;;;12.43;;
26062;SDS011;13837;48.562;12.108;2023-08-24T05:55:19;15.68;;;12.30;;
26062;SDS011;13837;48.562;12.108;2023-08-24T05:57:45;14.70;;;13.10;;
26062;SDS011;13837;48.562;12.108;2023-08-24T06:00:12;13.52;;;11.93;;
26062;SDS011;13837;48.562;12.108;2023-08-24T06:02:38;15.00;;;13.30;;
26062;SDS011;13837;48.562;12.108;2023-08-24T06:05:05;14.65;;;13.18;;
26062;SDS011;13837;48.562;12.108;2023-08-24T06:07:32;16.73;;;13.90;;
26062;SDS011;13837;48.562;12.108;2023-08-24T06:09:58;14.18;;;12.65;;
26062;SDS011;13837;48.562;12.108;2023-08-24T06:12:24;15.10;;;13.30;;
26062;SDS011;13837;48.562;12.108;2023-08-24T06:14:50;13.95;;;12.45;;
26062;SDS011;13837;48.562;12.108;2023-08-24T06:17:16;14.40;;;12.48;;
26062;SDS011;13837;48.562;12.108;2023-08-24T06:19:42;13.65;;;12.25;;
26062;SDS011;13837;48.562;12.108;2023-08-24T06:22:09;12.25;;;11.00;;
26062;SDS011;13837;48.562;12.108;2023-08-24T06:24:35;12.25;;;11.02;;
26062;SDS011;13837;48.562;12.108;2023-08-24T06:27:01;11.98;;;10.63;;
26062;SDS011;13837;48.562;12.108;2023-08-24T06:29:28;12.80;;;10.20;;
26062;SDS011;13837;48.562;12.108;2023-08-24T06:31:54;12.88;;;11.00;;
26062;SDS011;13837;48.562;12.108;2023-08-24T06:34:20;11.98;;;10.77;;
26062;SDS011;13837;48.562;12.108;2023-08-24T06:36:46;15.77;;;9.98;;
26062;SDS011;13837;48.562;12.108;2023-08-24T06:39:12;12.20;;;10.30;;
26062;SDS011;13837;48.562;12.108;2023-08-24T06:41:39;10.43;;;9.25;;
26062;SDS011;13837;48.562;12.108;2023-08-24T06:46:33;9.50;;;8.05;;
26062;SDS011;13837;48.562;12.108;2023-08-24T06:48:59;12.82;;;8.80;;
26062;SDS011;13837;48.562;12.108;2023-08-24T06:51:26;9.85;;;8.90;;
26062;SDS011;13837;48.562;12.108;2023-08-24T06:53:53;10.48;;;9.32;;
26062;SDS011;13837;48.562;12.108;2023-08-24T06:56:19;8.80;;;8.00;;
26062;SDS011;13837;48.562;12.108;2023-08-24T06:58:48;8.50;;;7.20;;
26062;SDS011;13837;48.562;12.108;2023-08-24T07:01:14;10.40;;;7.45;;
26062;SDS011;13837;48.562;12.108;2023-08-24T07:03:41;7.22;;;6.53;;
26062;SDS011;13837;48.562;12.108;2023-08-24T07:06:07;9.52;;;6.75;;
26062;SDS011;13837;48.562;12.108;2023-08-24T07:08:33;8.23;;;7.43;;
26062;SDS011;13837;48.562;12.108;2023-08-24T07:11:00;7.57;;;6.88;;
26062;SDS011;13837;48.562;12.108;2023-08-24T07:13:27;8.38;;;6.82;;
26062;SDS011;13837;48.562;12.108;2023-08-24T07:15:53;8.32;;;7.00;;
26062;SDS011;13837;48.562;12.108;2023-08-24T07:18:20;9.43;;;6.25;;
26062;SDS011;13837;48.562;12.108;2023-08-24T07:20:46;6.93;;;6.22;;
26062;SDS011;13837;48.562;12.108;2023-08-24T07:23:12;9.93;;;6.32;;
26062;SDS011;13837;48.562;12.108;2023-08-24T07:25:38;7.82;;;6.63;;
26062;SDS011;13837;48.562;12.108;2023-08-24T07:28:06;8.00;;;7.05;;
26062;SDS011;13837;48.562;12.108;2023-08-24T07:30:33;7.07;;;6.43;;
26062;SDS011;13837;48.562;12.108;2023-08-24T07:33:00;6.93;;;6.25;;
26062;SDS011;13837;48.562;12.108;2023-08-24T07:35:26;9.50;;;7.15;;
26062;SDS011;13837;48.562;12.108;2023-08-24T07:37:52;8.30;;;6.88;;
26062;SDS011;13837;48.562;12.108;2023-08-24T07:40:18;10.30;;;6.43;;
26062;SDS011;13837;48.562;12.108;2023-08-24T07:45:11;7.63;;;6.20;;
26062;SDS011;13837;48.562;12.108;2023-08-24T07:47:37;7.82;;;5.90;;
26062;SDS011;13837;48.562;12.108;2023-08-24T07:50:03;8.80;;;6.22;;
26062;SDS011;13837;48.562;12.108;2023-08-24T07:52:29;8.00;;;6.28;;
26062;SDS011;13837;48.562;12.108;2023-08-24T07:54:55;9.25;;;6.40;;
26062;SDS011;13837;48.562;12.108;2023-08-24T07:57:24;5.85;;;5.35;;
26062;SDS011;13837;48.562;12.108;2023-08-24T07:59:51;7.53;;;5.38;;
26062;SDS011;13837;48.562;12.108;2023-08-24T08:02:17;8.02;;;5.50;;
26062;SDS011;13837;48.562;12.108;2023-08-24T08:04:43;8.25;;;5.50;;
26062;SDS011;13837;48.562;12.108;2023-08-24T08:07:09;8.35;;;6.07;;
26062;SDS011;13837;48.562;12.108;2023-08-24T08:09:36;7.40;;;6.22;;
26062;SDS011;13837;48.562;12.108;2023-08-24T08:12:02;6.93;;;4.85;;
26062;SDS011;13837;48.562;12.108;2023-08-24T08:14:32;7.60;;;5.00;;
26062;SDS011;13837;48.562;12.108;2023-08-24T08:16:58;9.23;;;5.53;;
26062;SDS011;13837;48.562;12.108;2023-08-24T08:19:24;6.00;;;5.50;;
26062;SDS011;13837;48.562;12.108;2023-08-24T08:21:53;6.65;;;5.80;;
26062;SDS011;13837;48.562;12.108;2023-08-24T08:24:19;8.20;;;5.90;;
26062;SDS011;13837;48.562;12.108;2023-08-24T08:26:45;7.88;;;5.53;;
26062;SDS011;13837;48.562;12.108;2023-08-24T08:29:11;7.82;;;5.90;;
26062;SDS011;13837;48.562;12.108;2023-08-24T08:31:37;8.35;;;5.38;;
26062;SDS011;13837;48.562;12.108;2023-08-24T08:34:03;6.80;;;5.45;;
26062;SDS011;13837;48.562;12.108;2023-08-24T08:36:29;7.30;;;5.70;;
26062;SDS011;13837;48.562;12.108;2023-08-24T08:38:59;7.80;;;5.72;;
26062;SDS011;13837;48.562;12.108;2023-08-24T08:41:26;6.15;;;5.47;;
26062;SDS011;13837;48.562;12.108;2023-08-24T08:43:52;7.87;;;5.53;;
26062;SDS011;13837;48.562;12.108;2023-08-24T08:46:18;7.80;;;5.45;;
26062;SDS011;13837;48.562;12.108;2023-08-24T08:48:45;11.68;;;5.32;;
26062;SDS011;13837;48.562;12.108;2023-08-24T08:51:12;7.47;;;4.85;;
26062;SDS011;13837;48.562;12.108;2023-08-24T08:53:39;5.63;;;4.88;;
26062;SDS011;13837;48.562;12.108;2023-08-24T08:56:05;9.05;;;5.45;;
26062;SDS011;13837;48.562;12.108;2023-08-24T08:58:32;8.48;;;4.28;;
26062;SDS011;13837;48.562;12.108;2023-08-24T09:01:01;7.72;;;4.55;;
26062;SDS011;13837;48.562;12.108;2023-08-24T09:03:29;5.50;;;5.00;;
26062;SDS011;13837;48.562;12.108;2023-08-24T09:05:56;5.72;;;4.78;;
26062;SDS011;13837;48.562;12.108;2023-08-24T09:08:22;5.35;;;4.80;;
26062;SDS011;13837;48.562;12.108;2023-08-24T09:10:48;8.52;;;4.60;;
26062;SDS011;13837;48.562;12.108;2023-08-24T09:13:14;8.77;;;4.68;;
26062;SDS011;13837;48.562;12.108;2023-08-24T09:15:40;7.13;;;4.22;;
26062;SDS011;13837;48.562;12.108;2023-08-24T09:18:06;4.90;;;4.50;;
26062;SDS011;13837;48.562;12.108;2023-08-24T09:20:33;4.70;;;4.30;;
26062;SDS011;13837;48.562;12.108;2023-08-24T09:23:00;5.00;;;4.47;;
26062;SDS011;13837;48.562;12.108;2023-08-24T09:25:26;4.90;;;4.22;;
26062;SDS011;13837;48.562;12.108;2023-08-24T09:27:56;6.50;;;4.75;;
26062;SDS011;13837;48.562;12.108;2023-08-24T09:30:22;7.60;;;4.47;;
26062;SDS011;13837;48.562;12.108;2023-08-24T09:32:48;4.43;;;4.03;;
26062;SDS011;13837;48.562;12.108;2023-08-24T09:35:14;4.60;;;4.20;;
26062;SDS011;13837;48.562;12.108;2023-08-24T09:37:41;11.43;;;4.25;;
26062;SDS011;13837;48.562;12.108;2023-08-24T09:40:10;6.47;;;4.13;;
26062;SDS011;13837;48.562;12.108;2023-08-24T09:42:40;5.05;;;4.13;;
26062;SDS011;13837;48.562;12.108;2023-08-24T09:45:16;6.80;;;4.50;;
26062;SDS011;13837;48.562;12.108;2023-08-24T09:47:51;7.30;;;4.22;;
26062;SDS011;13837;48.562;12.108;2023-08-24T09:50:18;5.53;;;4.10;;
26062;SDS011;13837;48.562;12.108;2023-08-24T09:52:44;5.13;;;4.05;;
26062;SDS011;13837;48.562;12.108;2023-08-24T09:55:10;5.13;;;4.18;;
26062;SDS011;13837;48.562;12.108;2023-08-24T09:57:38;5.15;;;4.28;;
26062;SDS011;13837;48.562;12.108;2023-08-24T10:00:07;4.55;;;4.13;;
26062;SDS011;13837;48.562;12.108;2023-08-24T10:02:49;5.65;;;4.20;;
26062;SDS011;13837;48.562;12.108;2023-08-24T10:05:20;4.60;;;4.03;;
26062;SDS011;13837;48.562;12.108;2023-08-24T10:07:52;5.35;;;4.00;;
26062;SDS011;13837;48.562;12.108;2023-08-24T10:10:19;7.70;;;4.30;;
26062;SDS011;13837;48.562;12.108;2023-08-24T10:12:54;5.15;;;4.15;;
26062;SDS011;13837;48.562;12.108;2023-08-24T10:15:22;4.60;;;3.67;;
26062;SDS011;13837;48.562;12.108;2023-08-24T10:17:48;4.55;;;4.18;;
26062;SDS011;13837;48.562;12.108;2023-08-24T10:20:16;5.43;;;4.43;;
26062;SDS011;13837;48.562;12.108;2023-08-24T10:22:43;6.95;;;4.25;;
26062;SDS011;13837;48.562;12.108;2023-08-24T10:25:09;6.72;;;4.25;;
26062;SDS011;13837;48.562;12.108;2023-08-24T10:27:36;5.00;;;4.50;;
26062;SDS011;13837;48.562;12.108;2023-08-24T10:30:02;4.60;;;3.92;;
26062;SDS011;13837;48.562;12.108;2023-08-24T10:32:28;5.28;;;3.90;;
26062;SDS011;13837;48.562;12.108;2023-08-24T10:34:55;6.18;;;3.97;;
26062;SDS011;13837;48.562;12.108;2023-08-24T10:37:25;4.75;;;4.20;;
26062;SDS011;13837;48.562;12.108;2023-08-24T10:39:51;6.88;;;4.07;;
26062;SDS011;13837;48.562;12.108;2023-08-24T10:42:17;5.00;;;3.70;;
26062;SDS011;13837;48.562;12.108;2023-08-24T10:44:46;4.32;;;3.70;;
26062;SDS011;13837;48.562;12.108;2023-08-24T10:47:17;4.25;;;3.80;;
26062;SDS011;13837;48.562;12.108;2023-08-24T10:49:44;7.72;;;4.13;;
26062;SDS011;13837;48.562;12.108;2023-08-24T10:52:17;4.23;;;3.93;;
26062;SDS011;13837;48.562;12.108;2023-08-24T10:54:45;4.75;;;4.00;;
26062;SDS011;13837;48.562;12.108;2023-08-24T11:02:24;4.72;;;3.97;;
26062;SDS011;13837;48.562;12.108;2023-08-24T11:05:03;4.38;;;3.92;;
26062;SDS011;13837;48.562;12.108;2023-08-24T11:07:30;5.10;;;4.28;;
26062;SDS011;13837;48.562;12.108;2023-08-24T11:09:56;4.85;;;4.40;;
26062;SDS011;13837;48.562;12.108;2023-08-24T11:12:22;6.90;;;4.28;;
26062;SDS011;13837;48.562;12.108;2023-08-24T11:14:49;5.93;;;4.00;;
26062;SDS011;13837;48.562;12.108;2023-08-24T11:17:26;9.87;;;4.50;;
26062;SDS011;13837;48.562;12.108;2023-08-24T11:19:56;5.63;;;4.50;;
26062;SDS011;13837;48.562;12.108;2023-08-24T11:22:23;6.32;;;4.35;;
26062;SDS011;13837;48.562;12.108;2023-08-24T11:24:51;6.22;;;3.95;;
26062;SDS011;13837;48.562;12.108;2023-08-24T11:27:17;5.25;;;4.55;;
26062;SDS011;13837;48.562;12.108;2023-08-24T11:29:43;8.35;;;4.18;;
26062;SDS011;13837;48.562;12.108;2023-08-24T11:32:09;7.30;;;4.25;;
26062;SDS011;13837;48.562;12.108;2023-08-24T11:34:35;4.38;;;3.97;;
26062;SDS011;13837;48.562;12.108;2023-08-24T11:37:02;5.93;;;3.75;;
26062;SDS011;13837;48.562;12.108;2023-08-24T11:39:28;8.13;;;4.75;;
26062;SDS011;13837;48.562;12.108;2023-08-24T11:42:01;9.93;;;4.40;;
26062;SDS011;13837;48.562;12.108;2023-08-24T11:44:28;4.38;;;3.97;;
26062;SDS011;13837;48.562;12.108;2023-08-24T11:46:58;6.05;;;4.10;;
26062;SDS011;13837;48.562;12.108;2023-08-24T11:49:24;4.43;;;4.05;;
26062;SDS011;13837;48.562;12.108;2023-08-24T11:51:50;3.85;;;3.60;;
26062;SDS011;13837;48.562;12.108;2023-08-24T11:54:18;5.28;;;3.95;;
26062;SDS011;13837;48.562;12.108;2023-08-24T11:56:44;4.47;;;3.97;;
26062;SDS011;13837;48.562;12.108;2023-08-24T11:59:15;5.50;;;4.00;;
26062;SDS011;13837;48.562;12.108;2023-08-24T12:01:41;4.00;;;3.65;;
26062;SDS011;13837;48.562;12.108;2023-08-24T12:04:08;4.47;;;4.00;;
26062;SDS011;13837;48.562;12.108;2023-08-24T12:06:34;4.82;;;4.30;;
26062;SDS011;13837;48.562;12.108;2023-08-24T12:09:00;6.18;;;3.97;;
26062;SDS011;13837;48.562;12.108;2023-08-24T12:11:28;5.68;;;4.05;;
26062;SDS011;13837;48.562;12.108;2023-08-24T12:13:54;4.65;;;4.00;;
26062;SDS011;13837;48.562;12.108;2023-08-24T12:16:21;5.05;;;3.78;;
26062;SDS011;13837;48.562;12.108;2023-08-24T12:18:51;9.55;;;3.90;;
26062;SDS011;13837;48.562;12.108;2023-08-24T12:21:17;7.28;;;3.72;;
26062;SDS011;13837;48.562;12.108;2023-08-24T12:23:45;7.10;;;3.67;;
26062;SDS011;13837;48.562;12.108;2023-08-24T12:26:18;3.70;;;3.40;;
26062;SDS011;13837;48.562;12.108;2023-08-24T12:28:48;4.70;;;3.65;;
26062;SDS011;13837;48.562;12.108;2023-08-24T12:31:14;6.43;;;3.25;;
26062;SDS011;13837;48.562;12.108;2023-08-24T12:33:42;4.30;;;3.30;;
26062;SDS011;13837;48.562;12.108;2023-08-24T12:36:09;9.80;;;3.42;;
26062;SDS011;13837;48.562;12.108;2023-08-24T12:38:35;4.65;;;3.40;;
26062;SDS011;13837;48.562;12.108;2023-08-24T12:41:01;6.43;;;3.35;;
26062;SDS011;13837;48.562;12.108;2023-08-24T12:43:28;5.90;;;3.40;;
26062;SDS011;13837;48.562;12.108;2023-08-24T12:45:54;5.53;;;3.13;;
26062;SDS011;13837;48.562;12.108;2023-08-24T12:48:20;6.47;;;3.70;;
26062;SDS011;13837;48.562;12.108;2023-08-24T12:50:46;4.93;;;4.15;;
26062;SDS011;13837;48.562;12.108;2023-08-24T12:53:12;6.13;;;4.50;;
26062;SDS011;13837;48.562;12.108;2023-08-24T12:55:39;6.03;;;3.78;;
26062;SDS011;13837;48.562;12.108;2023-08-24T12:58:05;5.07;;;3.13;;
26062;SDS011;13837;48.562;12.108;2023-08-24T13:00:31;5.63;;;3.50;;
26062;SDS011;13837;48.562;12.108;2023-08-24T13:02:57;4.78;;;3.95;;
26062;SDS011;13837;48.562;12.108;2023-08-24T13:05:24;7.63;;;3.75;;
26062;SDS011;13837;48.562;12.108;2023-08-24T13:07:50;4.75;;;3.28;;
26062;SDS011;13837;48.562;12.108;2023-08-24T13:10:16;5.88;;;3.25;;
26062;SDS011;13837;48.562;12.108;2023-08-24T13:12:42;6.20;;;3.83;;
26062;SDS011;13837;48.562;12.108;2023-08-24T13:15:09;8.40;;;3.60;;
26062;SDS011;13837;48.562;12.108;2023-08-24T13:17:40;4.68;;;3.20;;
26062;SDS011;13837;48.562;12.108;2023-08-24T13:20:06;8.23;;;4.05;;
26062;SDS011;13837;48.562;12.108;2023-08-24T13:22:33;6.82;;;3.58;;
26062;SDS011;13837;48.562;12.108;2023-08-24T13:24:59;8.43;;;3.95;;
26062;SDS011;13837;48.562;12.108;2023-08-24T13:27:25;9.57;;;3.90;;
26062;SDS011;13837;48.562;12.108;2023-08-24T13:29:51;4.22;;;3.90;;
26062;SDS011;13837;48.562;12.108;2023-08-24T13:32:21;5.68;;;3.72;;
26062;SDS011;13837;48.562;12.108;2023-08-24T13:34:47;6.57;;;4.13;;
26062;SDS011;13837;48.562;12.108;2023-08-24T13:37:13;7.55;;;4.32;;
26062;SDS011;13837;48.562;12.108;2023-08-24T13:39:39;5.40;;;3.85;;
26062;SDS011;13837;48.562;12.108;2023-08-24T13:42:05;5.20;;;4.07;;
26062;SDS011;13837;48.562;12.108;2023-08-24T13:44:31;5.93;;;4.40;;
26062;SDS011;13837;48.562;12.108;2023-08-24T13:46:57;8.00;;;4.00;;
26062;SDS011;13837;48.562;12.108;2023-08-24T13:49:23;5.45;;;4.20;;
26062;SDS011;13837;48.562;12.108;2023-08-24T13:51:49;4.78;;;4.00;;
26062;SDS011;13837;48.562;12.108;2023-08-24T13:54:16;7.18;;;3.80;;
26062;SDS011;13837;48.562;12.108;2023-08-24T13:56:43;5.75;;;3.83;;
26062;SDS011;13837;48.562;12.108;2023-08-24T13:59:09;6.43;;;4.30;;
26062;SDS011;13837;48.562;12.108;2023-08-24T14:01:35;6.00;;;3.45;;
26062;SDS011;13837;48.562;12.108;2023-08-24T14:04:02;4.80;;;3.97;;
26062;SDS011;13837;48.562;12.108;2023-08-24T14:06:28;6.75;;;4.05;;
26062;SDS011;13837;48.562;12.108;2023-08-24T14:08:54;6.15;;;3.72;;
26062;SDS011;13837;48.562;12.108;2023-08-24T14:11:20;6.85;;;3.28;;
26062;SDS011;13837;48.562;12.108;2023-08-24T14:13:46;8.52;;;3.63;;
26062;SDS011;13837;48.562;12.108;2023-08-24T14:16:12;8.40;;;3.67;;
26062;SDS011;13837;48.562;12.108;2023-08-24T14:18:38;8.52;;;4.25;;
26062;SDS011;13837;48.562;12.108;2023-08-24T14:21:05;5.75;;;3.42;;
26062;SDS011;13837;48.562;12.108;2023-08-24T14:23:31;5.97;;;3.70;;
26062;SDS011;13837;48.562;12.108;2023-08-24T14:25:58;5.70;;;3.90;;
26062;SDS011;13837;48.562;12.108;2023-08-24T14:28:24;7.15;;;3.60;;
26062;SDS011;13837;48.562;12.108;2023-08-24T14:30:50;6.97;;;3.72;;
26062;SDS011;13837;48.562;12.108;2023-08-24T14:33:16;4.65;;;2.88;;
26062;SDS011;13837;48.562;12.108;2023-08-24T14:35:51;4.07;;;3.30;;
26062;SDS011;13837;48.562;12.108;2023-08-24T14:38:18;8.15;;;3.28;;